Nashville, Tennessee
Traffic Map
Current Weather Conditions
Nashville, Tennessee
Clear
Clear
-1°
Feels Like: -4°
Wind Chill: -4° Ceiling: Unl
Heat Index: -1° Visibility: 10mi
Dew Point: -11° Wind: 7mph
Humidity: 47% Direction: 180° (S)
Pressure: 30.46in Gusts: 0mph
Raw Report DataKBNA 181853Z 18006KT 10SM CLR M01/M11 A3046 RMK AO2 SLP321 T10061106
Traffic Incident Summary
Active as of:
Severity:
Category:
InformationThere was an issue retrieving the traffic information for this location. Please try a different location or try again shortly.
Advertisements